createdAt,value
2023-07-23T00:01:57.187Z,25.18
2023-07-23T00:04:23.691Z,25.18
2023-07-23T00:06:50.177Z,25.18
2023-07-23T00:09:16.645Z,25.18
2023-07-23T00:11:43.113Z,25.12
2023-07-23T00:14:09.622Z,25.03
2023-07-23T00:16:36.228Z,24.94
2023-07-23T00:19:03.073Z,24.80
2023-07-23T00:21:29.732Z,24.72
2023-07-23T00:23:56.433Z,24.71
2023-07-23T00:26:23.201Z,24.82
2023-07-23T00:28:50.002Z,24.88
2023-07-23T00:31:16.961Z,24.90
2023-07-23T00:33:43.459Z,24.87
2023-07-23T00:36:09.907Z,24.78
2023-07-23T00:38:36.398Z,24.73
2023-07-23T00:41:03.090Z,24.67
2023-07-23T00:43:29.679Z,24.65
2023-07-23T00:45:56.497Z,24.63
2023-07-23T00:48:23.055Z,24.63
2023-07-23T00:50:49.581Z,24.70
2023-07-23T00:53:16.422Z,24.78
2023-07-23T00:55:43.226Z,24.83
2023-07-23T00:58:10.141Z,24.84
2023-07-23T01:00:37.903Z,24.83
2023-07-23T01:03:04.595Z,24.88
2023-07-23T01:05:31.483Z,24.92
2023-07-23T01:07:58.872Z,24.95
2023-07-23T01:10:26.064Z,24.97
2023-07-23T01:12:53.092Z,24.98
2023-07-23T01:15:19.732Z,24.98
2023-07-23T01:17:47.502Z,24.94
2023-07-23T01:20:14.023Z,24.88
2023-07-23T01:22:40.599Z,24.88
2023-07-23T01:25:07.167Z,24.91
2023-07-23T01:27:33.927Z,24.95
2023-07-23T01:30:00.501Z,24.97
2023-07-23T01:32:27.423Z,24.98
2023-07-23T01:34:55.403Z,25.00
2023-07-23T01:37:22.103Z,25.00
2023-07-23T01:39:48.655Z,25.00
2023-07-23T01:42:16.605Z,25.00
2023-07-23T01:44:43.482Z,25.01
2023-07-23T01:47:10.421Z,25.01
2023-07-23T01:49:36.904Z,25.00
2023-07-23T01:52:03.466Z,25.02
2023-07-23T01:54:29.913Z,25.00
2023-07-23T01:56:57.300Z,24.99
2023-07-23T01:59:23.801Z,24.99
2023-07-23T02:01:50.301Z,25.03
2023-07-23T02:04:16.846Z,25.04
2023-07-23T02:06:43.377Z,25.07
2023-07-23T02:09:10.345Z,25.07
2023-07-23T02:11:36.856Z,25.08
2023-07-23T02:14:03.471Z,25.08
2023-07-23T02:16:30.005Z,25.08
2023-07-23T02:18:56.766Z,25.08
2023-07-23T02:21:23.297Z,25.07
2023-07-23T02:23:49.798Z,25.09
2023-07-23T02:26:16.272Z,25.11
2023-07-23T02:28:44.959Z,25.11
2023-07-23T02:31:12.202Z,25.11
2023-07-23T02:33:38.755Z,25.11
2023-07-23T02:36:05.413Z,25.12
2023-07-23T02:38:31.914Z,25.11
2023-07-23T02:40:59.112Z,25.12
2023-07-23T02:43:26.194Z,25.11
2023-07-23T02:45:52.980Z,25.11
2023-07-23T02:48:19.478Z,25.08
2023-07-23T02:50:45.948Z,25.07
2023-07-23T02:53:12.670Z,25.08
2023-07-23T02:55:39.224Z,25.10
2023-07-23T02:58:05.708Z,25.11
2023-07-23T03:00:32.275Z,25.11
2023-07-23T03:02:59.208Z,25.12
2023-07-23T03:05:26.408Z,25.11
2023-07-23T03:07:53.360Z,25.13
2023-07-23T03:10:20.194Z,25.13
2023-07-23T03:12:46.981Z,25.14
2023-07-23T03:15:14.325Z,25.13
2023-07-23T03:17:40.865Z,25.13
2023-07-23T03:20:08.693Z,25.13
2023-07-23T03:22:35.271Z,25.12
2023-07-23T03:25:01.731Z,25.12
2023-07-23T03:27:28.234Z,25.12
2023-07-23T03:29:54.677Z,25.11
2023-07-23T03:32:21.171Z,25.11
2023-07-23T03:34:48.019Z,25.11
2023-07-23T03:37:14.495Z,25.11
2023-07-23T03:39:40.998Z,25.11
2023-07-23T03:42:10.152Z,25.12
2023-07-23T03:44:36.632Z,25.13
2023-07-23T03:47:07.508Z,25.11
2023-07-23T03:49:33.991Z,25.12
2023-07-23T03:52:00.402Z,25.13
2023-07-23T03:54:27.343Z,25.12
2023-07-23T03:56:54.742Z,25.11
2023-07-23T03:59:21.341Z,25.12
2023-07-23T04:01:47.986Z,25.12
2023-07-23T04:04:14.565Z,25.13
2023-07-23T04:06:41.131Z,25.15
2023-07-23T04:09:07.624Z,25.15
2023-07-23T04:11:34.080Z,25.16
2023-07-23T04:14:00.610Z,25.15
2023-07-23T04:16:27.028Z,25.16
2023-07-23T04:18:54.841Z,25.16
2023-07-23T04:21:23.342Z,25.15
2023-07-23T04:23:51.042Z,25.15
2023-07-23T04:26:19.066Z,25.14
2023-07-23T04:28:46.270Z,25.13
2023-07-23T04:31:12.910Z,25.13
2023-07-23T04:33:39.612Z,25.11
2023-07-23T04:36:07.970Z,25.10
2023-07-23T04:38:35.190Z,25.09
2023-07-23T04:41:01.765Z,25.10
2023-07-23T04:43:28.305Z,25.12
2023-07-23T04:45:54.910Z,25.11
2023-07-23T04:48:21.532Z,24.98
2023-07-23T04:50:55.687Z,25.11
2023-07-23T04:53:22.691Z,25.11
2023-07-23T04:55:51.126Z,25.12
2023-07-23T04:58:17.632Z,25.12
2023-07-23T05:00:44.253Z,25.12
2023-07-23T05:03:14.844Z,25.12
2023-07-23T05:16:17.783Z,25.12
2023-07-23T05:18:44.237Z,25.13
2023-07-23T05:21:10.704Z,25.13
2023-07-23T05:23:37.681Z,25.12
2023-07-23T05:26:04.453Z,25.11
2023-07-23T05:28:30.944Z,25.12
2023-07-23T05:30:58.340Z,25.12
2023-07-23T05:33:25.351Z,25.11
2023-07-23T05:35:52.639Z,25.08
2023-07-23T05:38:19.073Z,25.07
2023-07-23T05:40:52.609Z,25.06
2023-07-23T05:43:19.050Z,25.07
2023-07-23T05:45:45.499Z,25.06
2023-07-23T05:48:12.120Z,25.07
2023-07-23T05:50:38.658Z,25.09
2023-07-23T05:53:05.129Z,25.10
2023-07-23T05:55:31.574Z,25.10
2023-07-23T05:57:58.307Z,25.11
2023-07-23T06:00:24.756Z,25.09
2023-07-23T06:02:51.363Z,25.09
2023-07-23T06:05:17.958Z,25.11
2023-07-23T06:07:44.709Z,25.06
2023-07-23T06:10:11.201Z,25.06
2023-07-23T06:12:37.597Z,25.06
2023-07-23T06:15:04.274Z,25.06
2023-07-23T06:17:30.775Z,25.07
2023-07-23T06:19:57.319Z,25.04
2023-07-23T06:22:23.916Z,25.08
2023-07-23T06:24:50.522Z,25.08
2023-07-23T06:27:17.030Z,25.06
2023-07-23T06:29:43.529Z,25.07
2023-07-23T06:32:11.429Z,25.08
2023-07-23T06:34:38.183Z,25.08
2023-07-23T06:37:05.025Z,25.09
2023-07-23T06:39:31.740Z,25.11
2023-07-23T06:41:58.272Z,25.11
2023-07-23T06:44:24.877Z,25.12
2023-07-23T06:46:51.949Z,25.13
2023-07-23T06:49:18.988Z,25.13
2023-07-23T06:51:45.400Z,25.13
2023-07-23T06:54:11.818Z,25.14
2023-07-23T06:56:38.787Z,25.15
2023-07-23T06:59:05.445Z,25.15
2023-07-23T07:01:32.088Z,25.16
2023-07-23T07:03:59.880Z,25.16
2023-07-23T07:06:26.403Z,25.15
2023-07-23T07:08:52.850Z,25.15
2023-07-23T07:11:20.610Z,25.16
2023-07-23T07:13:47.129Z,25.17
2023-07-23T07:16:13.652Z,25.19
2023-07-23T07:21:15.401Z,25.22
2023-07-23T07:23:41.945Z,25.23
2023-07-23T07:26:08.436Z,25.25
2023-07-23T07:28:35.158Z,25.28
2023-07-23T07:31:02.167Z,25.28
2023-07-23T07:33:29.377Z,25.28
2023-07-23T07:35:56.562Z,25.29
2023-07-23T07:38:24.549Z,25.31
2023-07-23T07:40:51.746Z,25.32
2023-07-23T07:43:18.827Z,25.32
2023-07-23T07:45:59.427Z,25.34
2023-07-23T07:48:26.563Z,25.35
2023-07-23T07:50:59.654Z,25.35
2023-07-23T07:53:32.181Z,25.34
2023-07-23T07:55:58.762Z,25.35
2023-07-23T07:58:26.310Z,25.34
2023-07-23T08:00:59.775Z,25.35
2023-07-23T08:03:28.057Z,25.36
2023-07-23T08:05:57.287Z,25.37
2023-07-23T08:08:26.236Z,25.37
2023-07-23T08:10:56.588Z,25.37
2023-07-23T08:13:23.732Z,25.36
2023-07-23T08:15:51.828Z,25.37
2023-07-23T08:18:20.540Z,25.37
2023-07-23T08:20:47.514Z,25.36
2023-07-23T08:23:14.211Z,25.36
2023-07-23T08:25:41.305Z,25.35
2023-07-23T08:28:08.637Z,25.36
2023-07-23T08:30:35.169Z,25.35
2023-07-23T08:33:02.210Z,25.35
2023-07-23T08:35:29.749Z,25.34
2023-07-23T08:37:56.993Z,25.36
2023-07-23T08:40:25.122Z,25.36
2023-07-23T08:43:07.776Z,25.35
2023-07-23T08:45:52.781Z,25.35
2023-07-23T08:48:20.343Z,25.35
2023-07-23T08:50:48.146Z,25.36
2023-07-23T08:53:15.830Z,25.36
2023-07-23T08:55:45.717Z,25.34
2023-07-23T08:58:21.163Z,25.35
2023-07-23T09:00:48.222Z,25.33
2023-07-23T09:03:15.816Z,25.34
2023-07-23T09:05:42.451Z,25.33
2023-07-23T09:08:08.882Z,25.34
2023-07-23T09:10:35.526Z,25.34
2023-07-23T09:13:15.074Z,25.34
2023-07-23T09:15:42.264Z,25.36
2023-07-23T09:18:09.456Z,25.37
2023-07-23T09:20:35.908Z,25.36
2023-07-23T09:23:07.119Z,25.34
2023-07-23T09:25:33.922Z,25.34
2023-07-23T09:28:00.464Z,25.34
2023-07-23T09:30:27.392Z,25.35
2023-07-23T09:32:58.139Z,25.34
2023-07-23T09:35:25.042Z,25.33
2023-07-23T09:37:58.715Z,25.33
2023-07-23T09:40:37.918Z,25.34
2023-07-23T09:43:04.463Z,25.33
2023-07-23T09:45:31.786Z,25.36
2023-07-23T09:48:13.887Z,25.36
2023-07-23T09:50:42.362Z,25.36
2023-07-23T09:53:09.318Z,25.36
2023-07-23T09:55:36.383Z,25.36
2023-07-23T09:58:03.320Z,25.36
2023-07-23T10:00:30.644Z,25.37
2023-07-23T10:02:59.594Z,25.37
2023-07-23T10:05:27.728Z,25.40
2023-07-23T10:07:54.572Z,25.38
2023-07-23T10:10:21.201Z,25.40
2023-07-23T10:12:47.623Z,25.40
2023-07-23T10:15:14.382Z,25.42
2023-07-23T10:17:43.563Z,25.44
2023-07-23T10:20:12.190Z,25.45
2023-07-23T10:22:40.779Z,25.46
2023-07-23T10:25:30.546Z,25.45
2023-07-23T10:28:02.378Z,25.46
2023-07-23T10:30:29.655Z,25.45
2023-07-23T10:33:25.301Z,25.46
2023-07-23T10:35:54.763Z,25.46
2023-07-23T10:38:21.226Z,25.47
2023-07-23T10:40:48.166Z,25.48
2023-07-23T10:43:15.045Z,25.49
2023-07-23T10:46:00.672Z,25.49
2023-07-23T10:48:38.172Z,25.50
2023-07-23T10:51:07.103Z,25.50
2023-07-23T10:53:33.923Z,25.50
2023-07-23T10:56:00.948Z,25.50
2023-07-23T10:58:28.251Z,25.50
2023-07-23T11:00:58.826Z,25.52
2023-07-23T11:03:26.074Z,25.52
2023-07-23T11:05:53.724Z,25.52
2023-07-23T11:08:29.271Z,25.53
2023-07-23T11:11:00.568Z,25.51
2023-07-23T11:13:28.786Z,25.52
2023-07-23T11:15:56.136Z,25.52
2023-07-23T11:18:23.694Z,25.51
2023-07-23T11:20:52.737Z,25.54
2023-07-23T11:23:21.836Z,25.55
2023-07-23T11:25:49.079Z,25.55
2023-07-23T11:28:17.670Z,25.55
2023-07-23T11:30:44.495Z,25.56
2023-07-23T11:33:13.014Z,25.56
2023-07-23T11:35:39.547Z,25.58
2023-07-23T11:38:06.417Z,25.60
2023-07-23T11:40:35.548Z,25.61
2023-07-23T11:43:06.350Z,25.60
2023-07-23T11:45:33.166Z,25.59
2023-07-23T11:47:59.675Z,25.59
2023-07-23T11:50:26.297Z,25.60
2023-07-23T11:52:53.135Z,25.59
2023-07-23T11:55:21.035Z,25.61
2023-07-23T11:57:58.189Z,25.62
2023-07-23T12:00:32.693Z,25.62
2023-07-23T12:02:59.761Z,25.64
2023-07-23T12:05:26.463Z,25.64
2023-07-23T12:07:56.097Z,25.63
2023-07-23T12:10:25.906Z,25.64
2023-07-23T12:12:52.491Z,25.64
2023-07-23T12:15:19.419Z,25.63
2023-07-23T12:17:46.217Z,25.64
2023-07-23T12:20:17.953Z,25.66
2023-07-23T12:22:50.425Z,25.65
2023-07-23T12:25:17.093Z,25.63
2023-07-23T12:27:43.689Z,25.64
2023-07-23T12:30:10.681Z,25.65
2023-07-23T12:32:37.189Z,25.66
2023-07-23T12:35:04.293Z,25.66
2023-07-23T12:37:32.641Z,25.65
2023-07-23T12:39:59.201Z,25.64
2023-07-23T12:42:25.948Z,25.64
2023-07-23T12:44:52.683Z,25.65
2023-07-23T12:47:19.728Z,25.64
2023-07-23T12:49:47.710Z,25.64
2023-07-23T12:52:18.401Z,25.65
2023-07-23T12:54:44.937Z,25.65
2023-07-23T12:57:11.634Z,25.65
2023-07-23T12:59:38.113Z,25.65
2023-07-23T13:02:05.018Z,25.65
2023-07-23T13:04:31.518Z,25.65
2023-07-23T13:06:58.236Z,25.65
2023-07-23T13:09:24.715Z,25.65
2023-07-23T13:11:51.546Z,25.66
2023-07-23T13:14:18.096Z,25.65
2023-07-23T13:16:44.606Z,25.66
2023-07-23T13:19:11.178Z,25.65
2023-07-23T13:21:37.728Z,25.65
2023-07-23T13:24:04.565Z,25.65
2023-07-23T13:26:31.379Z,25.65
2023-07-23T13:28:58.772Z,25.65
2023-07-23T13:31:25.874Z,25.65
2023-07-23T13:33:52.451Z,25.65
2023-07-23T13:36:19.182Z,25.66
2023-07-23T13:38:45.701Z,25.65
2023-07-23T13:41:12.490Z,25.66
2023-07-23T13:43:39.021Z,25.67
2023-07-23T13:46:05.552Z,25.66
2023-07-23T13:48:32.457Z,25.67
2023-07-23T13:50:58.929Z,25.66
2023-07-23T13:53:25.488Z,25.66
2023-07-23T13:55:52.789Z,25.67
2023-07-23T13:58:19.371Z,25.68
2023-07-23T14:00:45.892Z,25.72
2023-07-23T14:03:12.721Z,25.75
2023-07-23T14:05:39.631Z,25.74
2023-07-23T14:08:06.418Z,25.73
2023-07-23T14:10:33.293Z,25.72
2023-07-23T14:12:59.772Z,25.75
2023-07-23T14:15:26.293Z,25.74
2023-07-23T14:17:52.850Z,25.75
2023-07-23T14:20:19.376Z,25.75
2023-07-23T14:22:45.988Z,25.73
2023-07-23T14:25:12.472Z,25.71
2023-07-23T14:27:39.246Z,25.69
2023-07-23T14:30:06.156Z,25.70
2023-07-23T14:32:33.406Z,25.69
2023-07-23T14:35:00.061Z,25.68
2023-07-23T14:37:29.032Z,25.68
2023-07-23T14:39:56.150Z,25.68
2023-07-23T14:42:22.755Z,25.69
2023-07-23T14:44:49.230Z,25.67
2023-07-23T14:47:16.001Z,25.66
2023-07-23T14:49:42.574Z,25.65
2023-07-23T14:52:09.277Z,25.67
2023-07-23T14:54:35.773Z,25.68
2023-07-23T14:57:02.559Z,25.67
2023-07-23T14:59:29.022Z,25.66
2023-07-23T15:01:55.836Z,25.65
2023-07-23T15:04:22.420Z,25.65
2023-07-23T15:06:49.282Z,25.66
2023-07-23T15:09:16.724Z,25.65
2023-07-23T15:11:43.557Z,25.66
2023-07-23T15:14:10.199Z,25.64
2023-07-23T15:16:37.042Z,25.66
2023-07-23T15:19:03.704Z,25.66
2023-07-23T15:21:32.304Z,25.65
2023-07-23T15:24:00.509Z,25.65
2023-07-23T15:26:28.662Z,25.64
2023-07-23T15:28:57.443Z,25.62
2023-07-23T15:31:24.001Z,25.65
2023-07-23T15:33:50.487Z,25.67
2023-07-23T15:36:16.989Z,25.69
2023-07-23T15:38:43.455Z,25.69
2023-07-23T15:41:11.378Z,25.69
2023-07-23T15:43:37.923Z,25.73
2023-07-23T15:46:04.507Z,25.73
2023-07-23T15:48:31.312Z,25.73
2023-07-23T15:50:58.052Z,25.74
2023-07-23T15:53:24.465Z,25.75
2023-07-23T15:55:51.381Z,25.75
2023-07-23T15:58:17.857Z,25.77
2023-07-23T16:00:44.756Z,25.77
2023-07-23T16:03:11.425Z,25.78
2023-07-23T16:05:38.146Z,25.80
2023-07-23T16:08:04.730Z,25.80
2023-07-23T16:10:31.259Z,25.81
2023-07-23T16:12:58.206Z,25.82
2023-07-23T16:15:25.895Z,25.83
2023-07-23T16:17:52.776Z,25.82
2023-07-23T16:20:19.524Z,25.85
2023-07-23T16:22:46.010Z,25.86
2023-07-23T16:25:13.020Z,25.86
2023-07-23T16:27:39.504Z,25.87
2023-07-23T16:30:06.546Z,25.88
2023-07-23T16:32:35.468Z,25.88
2023-07-23T16:35:02.016Z,25.88
2023-07-23T16:37:29.885Z,25.89
2023-07-23T16:39:57.666Z,25.89
2023-07-23T16:42:26.003Z,25.90
2023-07-23T16:44:52.537Z,25.90
2023-07-23T16:47:19.053Z,25.91
2023-07-23T16:49:45.906Z,25.91
2023-07-23T16:52:12.364Z,25.93
2023-07-23T16:54:38.933Z,25.92
2023-07-23T16:57:05.883Z,25.92
2023-07-23T16:59:32.400Z,25.94
2023-07-23T17:01:59.123Z,25.95
2023-07-23T17:04:25.704Z,25.96
2023-07-23T17:06:52.152Z,25.94
2023-07-23T17:09:18.902Z,25.96
2023-07-23T17:11:45.420Z,25.96
2023-07-23T17:14:11.992Z,25.96
2023-07-23T17:16:40.498Z,25.96
2023-07-23T17:19:07.347Z,25.97
2023-07-23T17:21:53.985Z,25.97
2023-07-23T17:24:20.574Z,25.96
2023-07-23T17:26:47.063Z,25.97
2023-07-23T17:29:14.272Z,25.97
2023-07-23T17:31:40.988Z,25.98
2023-07-23T17:34:07.585Z,25.97
2023-07-23T17:36:34.294Z,25.99
2023-07-23T17:39:01.020Z,25.97
2023-07-23T17:41:27.554Z,25.98
2023-07-23T17:43:54.413Z,25.98
2023-07-23T17:46:21.803Z,25.98
2023-07-23T17:48:48.411Z,25.97
2023-07-23T17:51:14.876Z,25.97
2023-07-23T17:56:22.016Z,25.98
2023-07-23T17:58:50.824Z,25.98
2023-07-23T18:01:29.740Z,25.98
2023-07-23T18:03:57.641Z,25.99
2023-07-23T18:06:24.320Z,25.99
2023-07-23T18:08:51.191Z,25.98
2023-07-23T18:11:17.772Z,25.99
2023-07-23T18:13:44.414Z,25.99
2023-07-23T18:16:10.940Z,25.98
2023-07-23T18:18:37.404Z,25.99
2023-07-23T18:21:04.041Z,25.99
2023-07-23T18:23:31.976Z,25.99
2023-07-23T18:26:05.087Z,25.99
2023-07-23T18:28:32.690Z,25.99
2023-07-23T18:30:59.791Z,25.99
2023-07-23T18:33:26.306Z,25.98
2023-07-23T18:35:52.798Z,25.99
2023-07-23T18:38:19.345Z,25.99
2023-07-23T18:40:52.268Z,25.97
2023-07-23T18:43:24.215Z,25.97
2023-07-23T18:45:50.899Z,25.98
2023-07-23T18:48:18.503Z,25.96
2023-07-23T18:50:45.393Z,25.97
2023-07-23T18:53:12.307Z,25.95
2023-07-23T18:55:38.858Z,25.94
2023-07-23T18:58:05.407Z,25.94
2023-07-23T19:00:33.880Z,25.94
2023-07-23T19:03:00.608Z,25.94
2023-07-23T19:05:27.080Z,25.94
2023-07-23T19:07:54.371Z,25.93
2023-07-23T19:10:21.101Z,25.92
2023-07-23T19:12:47.630Z,25.91
2023-07-23T19:15:14.157Z,25.91
2023-07-23T19:20:21.283Z,25.89
2023-07-23T19:22:48.102Z,25.90
2023-07-23T19:25:56.910Z,25.90
2023-07-23T19:28:26.606Z,25.90
2023-07-23T19:30:53.429Z,25.89
2023-07-23T19:33:20.169Z,25.89
2023-07-23T19:35:46.974Z,25.89
2023-07-23T19:38:13.707Z,25.88
2023-07-23T19:40:40.281Z,25.88
2023-07-23T19:43:06.781Z,25.88
2023-07-23T19:45:33.444Z,25.88
2023-07-23T19:48:00.009Z,25.88
2023-07-23T19:50:26.535Z,25.87
2023-07-23T19:52:53.386Z,25.87
2023-07-23T19:55:20.037Z,25.87
2023-07-23T19:57:46.554Z,25.87
2023-07-23T20:00:13.439Z,25.87
2023-07-23T20:02:40.027Z,25.89
2023-07-23T20:05:07.711Z,25.87
2023-07-23T20:07:34.304Z,25.87
2023-07-23T20:10:00.841Z,25.88
2023-07-23T20:12:27.680Z,25.88
2023-07-23T20:14:54.340Z,25.86
2023-07-23T20:17:21.320Z,25.87
2023-07-23T20:19:48.390Z,25.85
2023-07-23T20:22:14.972Z,25.86
2023-07-23T20:24:42.473Z,25.86
2023-07-23T20:27:08.977Z,25.87
2023-07-23T20:29:36.414Z,25.85
2023-07-23T20:32:03.069Z,25.86
2023-07-23T20:34:29.599Z,25.87
2023-07-23T20:36:56.518Z,25.85
2023-07-23T20:39:23.163Z,25.86
2023-07-23T20:41:49.780Z,25.87
2023-07-23T20:44:16.236Z,25.85
2023-07-23T20:46:42.768Z,25.81
2023-07-23T20:49:09.295Z,25.83
2023-07-23T20:51:35.766Z,25.83
2023-07-23T20:54:02.245Z,25.83
2023-07-23T20:56:28.879Z,25.85
2023-07-23T20:58:55.598Z,25.82
2023-07-23T21:01:25.341Z,25.80
2023-07-23T21:03:51.915Z,25.81
2023-07-23T21:06:18.488Z,25.81
2023-07-23T21:08:45.024Z,25.82
2023-07-23T21:12:33.226Z,25.82
2023-07-23T21:15:21.064Z,25.81
2023-07-23T21:17:47.540Z,25.82
2023-07-23T21:20:14.065Z,25.84
2023-07-23T21:22:40.647Z,25.82
2023-07-23T21:25:07.261Z,25.82
2023-07-23T21:27:33.708Z,25.83
2023-07-23T21:30:00.237Z,25.83
2023-07-23T21:32:26.839Z,25.83
2023-07-23T21:34:53.353Z,25.85
2023-07-23T21:37:19.781Z,25.86
2023-07-23T21:39:46.558Z,25.86
2023-07-23T21:42:12.998Z,25.87
2023-07-23T21:44:39.419Z,25.87
2023-07-23T21:47:06.172Z,25.87
2023-07-23T21:49:33.077Z,25.86
2023-07-23T21:51:59.553Z,25.83
2023-07-23T21:54:26.081Z,25.82
2023-07-23T21:56:52.641Z,25.81
2023-07-23T21:59:19.054Z,25.80
2023-07-23T22:01:45.874Z,25.77
2023-07-23T22:04:12.580Z,25.77
2023-07-23T22:06:39.060Z,25.78
2023-07-23T22:09:05.491Z,25.79
2023-07-23T22:11:32.012Z,25.79
2023-07-23T22:13:58.451Z,25.79
2023-07-23T22:16:24.928Z,25.78
2023-07-23T22:18:51.630Z,25.77
2023-07-23T22:21:18.367Z,25.76
2023-07-23T22:23:44.839Z,25.73
2023-07-23T22:26:11.573Z,25.73
2023-07-23T22:28:38.090Z,25.72
2023-07-23T22:31:04.528Z,25.69
2023-07-23T22:33:31.341Z,25.66
2023-07-23T22:35:57.812Z,25.64
2023-07-23T22:38:24.298Z,25.63
2023-07-23T22:40:50.940Z,25.61
2023-07-23T22:43:18.559Z,25.61
2023-07-23T22:45:45.232Z,25.58
2023-07-23T22:48:12.093Z,25.50
2023-07-23T22:50:38.637Z,25.51
2023-07-23T22:53:05.143Z,25.53
2023-07-23T22:55:32.508Z,25.49
2023-07-23T22:57:59.210Z,25.49
2023-07-23T23:00:26.253Z,25.48
2023-07-23T23:02:52.803Z,25.48
2023-07-23T23:05:20.512Z,25.49
2023-07-23T23:07:47.345Z,25.49
2023-07-23T23:10:14.267Z,25.48
2023-07-23T23:12:40.793Z,25.47
2023-07-23T23:15:07.928Z,25.47
2023-07-23T23:17:34.765Z,25.44
2023-07-23T23:20:01.336Z,25.45
2023-07-23T23:22:27.975Z,25.43
2023-07-23T23:24:54.453Z,25.42
2023-07-23T23:27:21.054Z,25.39
2023-07-23T23:29:47.635Z,25.40
2023-07-23T23:32:14.340Z,25.41
2023-07-23T23:34:42.001Z,25.42
2023-07-23T23:37:08.455Z,25.42
2023-07-23T23:39:34.943Z,25.42
2023-07-23T23:42:01.399Z,25.41
2023-07-23T23:44:27.974Z,25.40
2023-07-23T23:46:54.785Z,25.42
2023-07-23T23:49:21.532Z,25.44
2023-07-23T23:51:48.226Z,25.43
2023-07-23T23:54:14.736Z,25.44
2023-07-23T23:56:48.760Z,25.40
2023-07-23T23:59:22.967Z,25.37
